sensor_id;sensor_type;location;lat;lon;timestamp;temperature;humidity
46552;DHT22;32278;51.810;4.712;2022-07-15T00:02:08;16.10;99.90
46552;DHT22;32278;51.810;4.712;2022-07-15T00:04:35;16.10;99.90
46552;DHT22;32278;51.810;4.712;2022-07-15T00:07:01;16.10;99.90
46552;DHT22;32278;51.810;4.712;2022-07-15T00:09:27;16.10;99.90
46552;DHT22;32278;51.810;4.712;2022-07-15T00:12:11;16.00;99.90
46552;DHT22;32278;51.810;4.712;2022-07-15T00:14:38;16.00;99.90
46552;DHT22;32278;51.810;4.712;2022-07-15T00:17:05;16.10;99.90
46552;DHT22;32278;51.810;4.712;2022-07-15T00:19:32;16.00;99.90
46552;DHT22;32278;51.810;4.712;2022-07-15T00:21:57;16.00;99.90
46552;DHT22;32278;51.810;4.712;2022-07-15T00:24:23;16.00;99.90
46552;DHT22;32278;51.810;4.712;2022-07-15T00:26:49;16.00;99.90
46552;DHT22;32278;51.810;4.712;2022-07-15T00:29:14;16.00;99.90
46552;DHT22;32278;51.810;4.712;2022-07-15T00:31:40;16.00;99.90
46552;DHT22;32278;51.810;4.712;2022-07-15T00:34:05;15.90;99.90
46552;DHT22;32278;51.810;4.712;2022-07-15T00:36:31;15.90;99.90
46552;DHT22;32278;51.810;4.712;2022-07-15T00:38:57;15.90;99.90
46552;DHT22;32278;51.810;4.712;2022-07-15T00:41:23;15.90;99.90
46552;DHT22;32278;51.810;4.712;2022-07-15T00:43:48;15.80;99.90
46552;DHT22;32278;51.810;4.712;2022-07-15T00:46:18;15.80;99.90
46552;DHT22;32278;51.810;4.712;2022-07-15T00:48:45;15.90;99.90
46552;DHT22;32278;51.810;4.712;2022-07-15T00:51:10;15.90;99.90
46552;DHT22;32278;51.810;4.712;2022-07-15T00:53:38;15.80;99.90
46552;DHT22;32278;51.810;4.712;2022-07-15T00:56:07;15.80;99.90
46552;DHT22;32278;51.810;4.712;2022-07-15T00:58:37;15.80;99.90
46552;DHT22;32278;51.810;4.712;2022-07-15T01:01:03;15.80;99.90
46552;DHT22;32278;51.810;4.712;2022-07-15T01:03:30;15.80;99.90
46552;DHT22;32278;51.810;4.712;2022-07-15T01:05:57;15.80;99.90
46552;DHT22;32278;51.810;4.712;2022-07-15T01:08:22;15.80;99.90
46552;DHT22;32278;51.810;4.712;2022-07-15T01:10:50;15.70;99.90
46552;DHT22;32278;51.810;4.712;2022-07-15T01:13:16;15.60;99.90
46552;DHT22;32278;51.810;4.712;2022-07-15T01:15:42;15.60;99.90
46552;DHT22;32278;51.810;4.712;2022-07-15T01:18:07;15.60;99.90
46552;DHT22;32278;51.810;4.712;2022-07-15T01:20:33;15.60;99.90
46552;DHT22;32278;51.810;4.712;2022-07-15T01:23:00;15.60;99.90
46552;DHT22;32278;51.810;4.712;2022-07-15T01:25:26;15.60;99.90
46552;DHT22;32278;51.810;4.712;2022-07-15T01:27:52;15.60;99.90
46552;DHT22;32278;51.810;4.712;2022-07-15T01:30:17;15.60;99.90
46552;DHT22;32278;51.810;4.712;2022-07-15T01:32:43;15.60;99.90
46552;DHT22;32278;51.810;4.712;2022-07-15T01:35:09;15.70;99.90
46552;DHT22;32278;51.810;4.712;2022-07-15T01:37:34;15.60;99.90
46552;DHT22;32278;51.810;4.712;2022-07-15T01:40:00;15.60;99.90
46552;DHT22;32278;51.810;4.712;2022-07-15T01:42:25;15.60;99.90
46552;DHT22;32278;51.810;4.712;2022-07-15T01:44:51;15.60;99.90
46552;DHT22;32278;51.810;4.712;2022-07-15T01:47:17;15.60;99.90
46552;DHT22;32278;51.810;4.712;2022-07-15T01:49:42;15.60;99.90
46552;DHT22;32278;51.810;4.712;2022-07-15T01:52:08;15.60;99.90
46552;DHT22;32278;51.810;4.712;2022-07-15T01:54:35;15.60;99.90
46552;DHT22;32278;51.810;4.712;2022-07-15T01:57:01;15.60;99.90
46552;DHT22;32278;51.810;4.712;2022-07-15T01:59:27;15.50;99.90
46552;DHT22;32278;51.810;4.712;2022-07-15T02:01:54;15.50;99.90
46552;DHT22;32278;51.810;4.712;2022-07-15T02:04:20;15.50;99.90
46552;DHT22;32278;51.810;4.712;2022-07-15T02:06:47;15.50;99.90
46552;DHT22;32278;51.810;4.712;2022-07-15T02:09:13;15.50;99.90
46552;DHT22;32278;51.810;4.712;2022-07-15T02:11:38;15.40;99.90
46552;DHT22;32278;51.810;4.712;2022-07-15T02:14:04;15.40;99.90
46552;DHT22;32278;51.810;4.712;2022-07-15T02:16:31;15.40;99.90
46552;DHT22;32278;51.810;4.712;2022-07-15T02:18:57;15.40;99.90
46552;DHT22;32278;51.810;4.712;2022-07-15T02:21:24;15.50;99.90
46552;DHT22;32278;51.810;4.712;2022-07-15T02:23:52;15.50;99.90
46552;DHT22;32278;51.810;4.712;2022-07-15T02:26:18;15.50;99.90
46552;DHT22;32278;51.810;4.712;2022-07-15T02:28:43;15.50;99.90
46552;DHT22;32278;51.810;4.712;2022-07-15T02:31:09;15.50;99.90
46552;DHT22;32278;51.810;4.712;2022-07-15T02:33:35;15.50;99.90
46552;DHT22;32278;51.810;4.712;2022-07-15T02:36:00;15.40;99.90
46552;DHT22;32278;51.810;4.712;2022-07-15T02:38:26;15.50;99.90
46552;DHT22;32278;51.810;4.712;2022-07-15T02:40:51;15.40;99.90
46552;DHT22;32278;51.810;4.712;2022-07-15T02:43:17;15.30;99.90
46552;DHT22;32278;51.810;4.712;2022-07-15T02:45:43;15.40;99.90
46552;DHT22;32278;51.810;4.712;2022-07-15T02:48:09;15.40;99.90
46552;DHT22;32278;51.810;4.712;2022-07-15T02:50:35;15.40;99.90
46552;DHT22;32278;51.810;4.712;2022-07-15T02:53:02;15.40;99.90
46552;DHT22;32278;51.810;4.712;2022-07-15T02:55:28;15.40;99.90
46552;DHT22;32278;51.810;4.712;2022-07-15T02:57:53;15.30;99.90
46552;DHT22;32278;51.810;4.712;2022-07-15T03:00:19;15.30;99.90
46552;DHT22;32278;51.810;4.712;2022-07-15T03:02:49;15.20;99.90
46552;DHT22;32278;51.810;4.712;2022-07-15T03:05:15;15.20;99.90
46552;DHT22;32278;51.810;4.712;2022-07-15T03:07:43;15.20;99.90
46552;DHT22;32278;51.810;4.712;2022-07-15T03:10:09;15.20;99.90
46552;DHT22;32278;51.810;4.712;2022-07-15T03:12:35;15.20;99.90
46552;DHT22;32278;51.810;4.712;2022-07-15T03:15:01;15.10;99.90
46552;DHT22;32278;51.810;4.712;2022-07-15T03:17:27;15.10;99.90
46552;DHT22;32278;51.810;4.712;2022-07-15T03:19:53;15.10;99.90
46552;DHT22;32278;51.810;4.712;2022-07-15T03:22:27;15.00;99.90
46552;DHT22;32278;51.810;4.712;2022-07-15T03:24:53;15.00;99.90
46552;DHT22;32278;51.810;4.712;2022-07-15T03:27:18;15.00;99.90
46552;DHT22;32278;51.810;4.712;2022-07-15T03:29:44;15.00;99.90
46552;DHT22;32278;51.810;4.712;2022-07-15T03:32:10;15.00;99.90
46552;DHT22;32278;51.810;4.712;2022-07-15T03:34:36;14.90;99.90
46552;DHT22;32278;51.810;4.712;2022-07-15T03:37:02;15.00;99.90
46552;DHT22;32278;51.810;4.712;2022-07-15T03:39:28;15.00;99.90
46552;DHT22;32278;51.810;4.712;2022-07-15T03:41:53;15.00;99.90
46552;DHT22;32278;51.810;4.712;2022-07-15T03:44:19;15.10;99.90
46552;DHT22;32278;51.810;4.712;2022-07-15T03:46:44;15.00;99.90
46552;DHT22;32278;51.810;4.712;2022-07-15T03:49:13;15.10;99.90
46552;DHT22;32278;51.810;4.712;2022-07-15T03:51:39;15.10;99.90
46552;DHT22;32278;51.810;4.712;2022-07-15T03:54:05;15.10;99.90
46552;DHT22;32278;51.810;4.712;2022-07-15T03:56:31;15.10;99.90
46552;DHT22;32278;51.810;4.712;2022-07-15T03:58:57;15.20;99.90
46552;DHT22;32278;51.810;4.712;2022-07-15T04:01:23;15.30;99.90
46552;DHT22;32278;51.810;4.712;2022-07-15T04:03:49;15.30;99.90
46552;DHT22;32278;51.810;4.712;2022-07-15T04:06:16;15.30;99.90
46552;DHT22;32278;51.810;4.712;2022-07-15T04:08:42;15.30;99.90
46552;DHT22;32278;51.810;4.712;2022-07-15T04:11:08;15.40;99.90
46552;DHT22;32278;51.810;4.712;2022-07-15T04:13:33;15.30;99.90
46552;DHT22;32278;51.810;4.712;2022-07-15T04:15:59;15.30;99.90
46552;DHT22;32278;51.810;4.712;2022-07-15T04:18:25;15.30;99.90
46552;DHT22;32278;51.810;4.712;2022-07-15T04:20:50;15.40;99.90
46552;DHT22;32278;51.810;4.712;2022-07-15T04:23:16;15.40;99.90
46552;DHT22;32278;51.810;4.712;2022-07-15T04:25:41;15.50;99.90
46552;DHT22;32278;51.810;4.712;2022-07-15T04:28:07;15.50;99.90
46552;DHT22;32278;51.810;4.712;2022-07-15T04:30:33;15.50;99.90
46552;DHT22;32278;51.810;4.712;2022-07-15T04:32:58;15.50;99.90
46552;DHT22;32278;51.810;4.712;2022-07-15T04:35:24;15.40;99.90
46552;DHT22;32278;51.810;4.712;2022-07-15T04:37:50;15.40;99.90
46552;DHT22;32278;51.810;4.712;2022-07-15T04:40:15;15.50;99.90
46552;DHT22;32278;51.810;4.712;2022-07-15T04:42:41;15.60;99.90
46552;DHT22;32278;51.810;4.712;2022-07-15T04:45:07;15.70;99.90
46552;DHT22;32278;51.810;4.712;2022-07-15T04:47:33;15.80;99.90
46552;DHT22;32278;51.810;4.712;2022-07-15T04:49:58;15.80;99.90
46552;DHT22;32278;51.810;4.712;2022-07-15T04:52:46;15.80;99.90
46552;DHT22;32278;51.810;4.712;2022-07-15T04:55:13;15.90;99.90
46552;DHT22;32278;51.810;4.712;2022-07-15T04:57:39;15.90;99.90
46552;DHT22;32278;51.810;4.712;2022-07-15T05:00:05;16.00;99.90
46552;DHT22;32278;51.810;4.712;2022-07-15T05:02:31;16.10;99.90
46552;DHT22;32278;51.810;4.712;2022-07-15T05:04:57;16.10;99.90
46552;DHT22;32278;51.810;4.712;2022-07-15T05:07:22;16.10;99.90
46552;DHT22;32278;51.810;4.712;2022-07-15T05:09:48;16.00;99.90
46552;DHT22;32278;51.810;4.712;2022-07-15T05:12:13;15.90;99.90
46552;DHT22;32278;51.810;4.712;2022-07-15T05:14:39;15.90;99.90
46552;DHT22;32278;51.810;4.712;2022-07-15T05:17:07;16.00;99.90
46552;DHT22;32278;51.810;4.712;2022-07-15T05:19:33;16.00;99.90
46552;DHT22;32278;51.810;4.712;2022-07-15T05:21:59;16.10;99.90
46552;DHT22;32278;51.810;4.712;2022-07-15T05:24:25;16.00;99.90
46552;DHT22;32278;51.810;4.712;2022-07-15T05:26:51;15.90;99.90
46552;DHT22;32278;51.810;4.712;2022-07-15T05:29:16;16.00;99.90
46552;DHT22;32278;51.810;4.712;2022-07-15T05:31:42;16.00;99.90
46552;DHT22;32278;51.810;4.712;2022-07-15T05:34:08;16.10;99.90
46552;DHT22;32278;51.810;4.712;2022-07-15T05:36:34;16.10;99.90
46552;DHT22;32278;51.810;4.712;2022-07-15T05:38:59;16.20;99.90
46552;DHT22;32278;51.810;4.712;2022-07-15T05:41:25;16.40;99.90
46552;DHT22;32278;51.810;4.712;2022-07-15T05:43:50;16.50;99.90
46552;DHT22;32278;51.810;4.712;2022-07-15T05:46:16;16.60;99.90
46552;DHT22;32278;51.810;4.712;2022-07-15T05:48:42;16.80;99.90
46552;DHT22;32278;51.810;4.712;2022-07-15T05:51:07;16.80;99.90
46552;DHT22;32278;51.810;4.712;2022-07-15T05:53:33;16.80;99.90
46552;DHT22;32278;51.810;4.712;2022-07-15T05:55:59;16.90;99.90
46552;DHT22;32278;51.810;4.712;2022-07-15T05:58:25;16.90;99.90
46552;DHT22;32278;51.810;4.712;2022-07-15T06:00:52;16.90;99.90
46552;DHT22;32278;51.810;4.712;2022-07-15T06:03:18;17.10;99.90
46552;DHT22;32278;51.810;4.712;2022-07-15T06:05:44;17.10;99.90
46552;DHT22;32278;51.810;4.712;2022-07-15T06:08:10;17.10;99.90
46552;DHT22;32278;51.810;4.712;2022-07-15T06:10:40;17.20;99.90
46552;DHT22;32278;51.810;4.712;2022-07-15T06:13:05;17.30;99.90
46552;DHT22;32278;51.810;4.712;2022-07-15T06:15:31;17.40;99.90
46552;DHT22;32278;51.810;4.712;2022-07-15T06:17:57;17.40;99.90
46552;DHT22;32278;51.810;4.712;2022-07-15T06:20:23;17.80;99.90
46552;DHT22;32278;51.810;4.712;2022-07-15T06:22:49;18.10;99.90
46552;DHT22;32278;51.810;4.712;2022-07-15T06:25:15;18.10;99.90
46552;DHT22;32278;51.810;4.712;2022-07-15T06:27:40;18.00;99.90
46552;DHT22;32278;51.810;4.712;2022-07-15T06:30:06;17.60;99.90
46552;DHT22;32278;51.810;4.712;2022-07-15T06:32:32;17.80;99.90
46552;DHT22;32278;51.810;4.712;2022-07-15T06:34:58;17.70;99.90
46552;DHT22;32278;51.810;4.712;2022-07-15T06:37:24;17.70;99.90
46552;DHT22;32278;51.810;4.712;2022-07-15T06:39:49;17.80;99.90
46552;DHT22;32278;51.810;4.712;2022-07-15T06:42:15;18.20;99.90
46552;DHT22;32278;51.810;4.712;2022-07-15T06:44:41;18.30;99.90
46552;DHT22;32278;51.810;4.712;2022-07-15T06:47:06;18.60;99.90
46552;DHT22;32278;51.810;4.712;2022-07-15T06:49:33;18.80;99.90
46552;DHT22;32278;51.810;4.712;2022-07-15T06:52:00;18.70;99.90
46552;DHT22;32278;51.810;4.712;2022-07-15T06:54:26;18.80;99.90
46552;DHT22;32278;51.810;4.712;2022-07-15T06:56:52;18.80;99.90
46552;DHT22;32278;51.810;4.712;2022-07-15T06:59:18;18.80;99.90
46552;DHT22;32278;51.810;4.712;2022-07-15T07:01:43;19.00;99.90
46552;DHT22;32278;51.810;4.712;2022-07-15T07:04:09;18.80;99.90
46552;DHT22;32278;51.810;4.712;2022-07-15T07:06:35;18.80;99.90
46552;DHT22;32278;51.810;4.712;2022-07-15T07:09:00;18.60;99.90
46552;DHT22;32278;51.810;4.712;2022-07-15T07:11:26;19.10;99.90
46552;DHT22;32278;51.810;4.712;2022-07-15T07:13:51;19.10;99.90
46552;DHT22;32278;51.810;4.712;2022-07-15T07:16:18;19.40;99.90
46552;DHT22;32278;51.810;4.712;2022-07-15T07:18:44;19.90;99.90
46552;DHT22;32278;51.810;4.712;2022-07-15T07:21:16;20.20;99.90
46552;DHT22;32278;51.810;4.712;2022-07-15T07:23:41;19.90;99.90
46552;DHT22;32278;51.810;4.712;2022-07-15T07:26:09;19.70;99.90
46552;DHT22;32278;51.810;4.712;2022-07-15T07:28:35;19.50;99.90
46552;DHT22;32278;51.810;4.712;2022-07-15T07:31:00;18.90;99.90
46552;DHT22;32278;51.810;4.712;2022-07-15T07:33:26;18.70;99.90
46552;DHT22;32278;51.810;4.712;2022-07-15T07:35:52;18.60;99.90
46552;DHT22;32278;51.810;4.712;2022-07-15T07:38:18;18.60;99.90
46552;DHT22;32278;51.810;4.712;2022-07-15T07:40:45;18.90;99.90
46552;DHT22;32278;51.810;4.712;2022-07-15T07:43:14;18.90;99.90
46552;DHT22;32278;51.810;4.712;2022-07-15T07:45:40;18.70;99.90
46552;DHT22;32278;51.810;4.712;2022-07-15T07:48:07;18.80;99.90
46552;DHT22;32278;51.810;4.712;2022-07-15T07:50:32;18.90;99.90
46552;DHT22;32278;51.810;4.712;2022-07-15T07:52:58;18.90;99.90
46552;DHT22;32278;51.810;4.712;2022-07-15T07:55:23;18.80;99.90
46552;DHT22;32278;51.810;4.712;2022-07-15T07:57:51;19.30;99.90
46552;DHT22;32278;51.810;4.712;2022-07-15T08:00:18;19.30;99.90
46552;DHT22;32278;51.810;4.712;2022-07-15T08:02:45;19.60;99.90
46552;DHT22;32278;51.810;4.712;2022-07-15T08:05:11;19.80;99.90
46552;DHT22;32278;51.810;4.712;2022-07-15T08:07:37;19.90;99.90
46552;DHT22;32278;51.810;4.712;2022-07-15T08:10:04;20.20;99.90
46552;DHT22;32278;51.810;4.712;2022-07-15T08:12:30;20.50;99.90
46552;DHT22;32278;51.810;4.712;2022-07-15T08:14:55;21.00;99.60
46552;DHT22;32278;51.810;4.712;2022-07-15T08:17:22;21.20;96.80
46552;DHT22;32278;51.810;4.712;2022-07-15T08:19:48;21.30;96.30
46552;DHT22;32278;51.810;4.712;2022-07-15T08:22:14;21.50;94.70
46552;DHT22;32278;51.810;4.712;2022-07-15T08:24:40;21.80;91.90
46552;DHT22;32278;51.810;4.712;2022-07-15T08:27:07;22.20;89.80
46552;DHT22;32278;51.810;4.712;2022-07-15T08:29:34;21.90;78.30
46552;DHT22;32278;51.810;4.712;2022-07-15T08:31:59;21.50;89.00
46552;DHT22;32278;51.810;4.712;2022-07-15T08:34:25;21.60;87.60
46552;DHT22;32278;51.810;4.712;2022-07-15T08:36:51;22.10;86.30
46552;DHT22;32278;51.810;4.712;2022-07-15T08:39:16;21.00;85.00
46552;DHT22;32278;51.810;4.712;2022-07-15T08:41:42;20.30;89.70
46552;DHT22;32278;51.810;4.712;2022-07-15T08:44:08;20.40;92.00
46552;DHT22;32278;51.810;4.712;2022-07-15T08:46:34;20.40;89.60
46552;DHT22;32278;51.810;4.712;2022-07-15T08:49:05;20.60;80.80
46552;DHT22;32278;51.810;4.712;2022-07-15T08:51:33;20.80;79.50
46552;DHT22;32278;51.810;4.712;2022-07-15T08:54:03;21.30;68.90
46552;DHT22;32278;51.810;4.712;2022-07-15T08:56:29;21.80;61.60
46552;DHT22;32278;51.810;4.712;2022-07-15T08:58:55;20.90;55.80
46552;DHT22;32278;51.810;4.712;2022-07-15T09:01:20;20.80;67.60
46552;DHT22;32278;51.810;4.712;2022-07-15T09:03:46;20.70;75.90
46552;DHT22;32278;51.810;4.712;2022-07-15T09:06:33;20.60;76.60
46552;DHT22;32278;51.810;4.712;2022-07-15T09:08:58;21.30;71.50
46552;DHT22;32278;51.810;4.712;2022-07-15T09:12:03;21.10;64.30
46552;DHT22;32278;51.810;4.712;2022-07-15T09:14:30;21.40;69.30
46552;DHT22;32278;51.810;4.712;2022-07-15T09:17:25;22.10;61.40
46552;DHT22;32278;51.810;4.712;2022-07-15T09:20:10;21.90;61.80
46552;DHT22;32278;51.810;4.712;2022-07-15T09:22:50;21.60;59.50
46552;DHT22;32278;51.810;4.712;2022-07-15T09:25:16;21.50;61.60
46552;DHT22;32278;51.810;4.712;2022-07-15T09:27:44;21.60;60.40
46552;DHT22;32278;51.810;4.712;2022-07-15T09:30:31;21.80;57.00
46552;DHT22;32278;51.810;4.712;2022-07-15T09:33:23;21.80;66.10
46552;DHT22;32278;51.810;4.712;2022-07-15T09:36:17;22.00;64.30
46552;DHT22;32278;51.810;4.712;2022-07-15T09:38:54;21.50;65.60
46552;DHT22;32278;51.810;4.712;2022-07-15T09:44:09;21.10;79.00
46552;DHT22;32278;51.810;4.712;2022-07-15T09:47:02;21.00;82.50
46552;DHT22;32278;51.810;4.712;2022-07-15T09:52:07;20.90;78.70
46552;DHT22;32278;51.810;4.712;2022-07-15T09:54:38;20.90;79.00
46552;DHT22;32278;51.810;4.712;2022-07-15T09:57:06;21.10;82.30
46552;DHT22;32278;51.810;4.712;2022-07-15T09:59:32;21.10;77.20
46552;DHT22;32278;51.810;4.712;2022-07-15T10:01:58;20.90;74.80
46552;DHT22;32278;51.810;4.712;2022-07-15T10:04:26;21.20;71.20
46552;DHT22;32278;51.810;4.712;2022-07-15T10:06:53;21.30;68.10
46552;DHT22;32278;51.810;4.712;2022-07-15T10:09:23;22.00;69.80
46552;DHT22;32278;51.810;4.712;2022-07-15T10:11:52;21.90;65.20
46552;DHT22;32278;51.810;4.712;2022-07-15T10:20:14;22.80;52.10
46552;DHT22;32278;51.810;4.712;2022-07-15T10:25:52;23.40;29.20
46552;DHT22;32278;51.810;4.712;2022-07-15T10:31:25;23.10;16.00
46552;DHT22;32278;51.810;4.712;2022-07-15T10:39:05;20.80;63.50
46552;DHT22;32278;51.810;4.712;2022-07-15T10:42:00;20.80;72.00
46552;DHT22;32278;51.810;4.712;2022-07-15T10:44:32;20.70;72.90
46552;DHT22;32278;51.810;4.712;2022-07-15T10:49:44;21.80;64.30
46552;DHT22;32278;51.810;4.712;2022-07-15T10:52:17;22.50;55.40
46552;DHT22;32278;51.810;4.712;2022-07-15T10:54:47;22.20;36.90
46552;DHT22;32278;51.810;4.712;2022-07-15T10:57:13;21.50;50.30
46552;DHT22;32278;51.810;4.712;2022-07-15T10:59:56;21.40;56.60
46552;DHT22;32278;51.810;4.712;2022-07-15T11:02:24;21.20;60.00
46552;DHT22;32278;51.810;4.712;2022-07-15T11:04:51;21.40;60.30
46552;DHT22;32278;51.810;4.712;2022-07-15T11:12:23;21.40;63.60
46552;DHT22;32278;51.810;4.712;2022-07-15T11:14:56;21.30;65.50
46552;DHT22;32278;51.810;4.712;2022-07-15T11:19:58;21.50;62.70
46552;DHT22;32278;51.810;4.712;2022-07-15T11:22:26;22.10;62.10
46552;DHT22;32278;51.810;4.712;2022-07-15T11:24:54;22.20;54.20
46552;DHT22;32278;51.810;4.712;2022-07-15T11:27:24;21.80;58.40
46552;DHT22;32278;51.810;4.712;2022-07-15T11:29:52;22.00;59.10
46552;DHT22;32278;51.810;4.712;2022-07-15T11:32:20;21.90;59.90
46552;DHT22;32278;51.810;4.712;2022-07-15T11:34:50;21.80;65.60
46552;DHT22;32278;51.810;4.712;2022-07-15T11:37:16;21.30;65.00
46552;DHT22;32278;51.810;4.712;2022-07-15T11:39:47;21.10;73.90
46552;DHT22;32278;51.810;4.712;2022-07-15T11:42:21;21.30;75.10
46552;DHT22;32278;51.810;4.712;2022-07-15T11:45:06;21.20;78.50
46552;DHT22;32278;51.810;4.712;2022-07-15T11:47:33;21.60;78.80
46552;DHT22;32278;51.810;4.712;2022-07-15T11:50:00;21.40;74.80
46552;DHT22;32278;51.810;4.712;2022-07-15T11:52:26;21.00;77.20
46552;DHT22;32278;51.810;4.712;2022-07-15T11:54:52;20.70;76.90
46552;DHT22;32278;51.810;4.712;2022-07-15T11:57:18;20.70;80.70
46552;DHT22;32278;51.810;4.712;2022-07-15T11:59:55;21.30;81.10
46552;DHT22;32278;51.810;4.712;2022-07-15T12:02:25;21.90;63.50
46552;DHT22;32278;51.810;4.712;2022-07-15T12:04:58;21.70;61.10
46552;DHT22;32278;51.810;4.712;2022-07-15T12:07:40;21.40;67.50
46552;DHT22;32278;51.810;4.712;2022-07-15T12:10:06;22.50;55.70
46552;DHT22;32278;51.810;4.712;2022-07-15T12:12:32;23.10;39.70
46552;DHT22;32278;51.810;4.712;2022-07-15T12:14:58;23.60;29.40
46552;DHT22;32278;51.810;4.712;2022-07-15T12:17:24;24.10;13.80
46552;DHT22;32278;51.810;4.712;2022-07-15T12:19:51;24.30;6.60
46552;DHT22;32278;51.810;4.712;2022-07-15T12:22:17;24.10;1.00
46552;DHT22;32278;51.810;4.712;2022-07-15T12:24:47;23.70;1.00
46552;DHT22;32278;51.810;4.712;2022-07-15T12:27:18;23.60;7.70
46552;DHT22;32278;51.810;4.712;2022-07-15T12:29:44;24.50;2.40
46552;DHT22;32278;51.810;4.712;2022-07-15T12:32:13;25.00;1.00
46552;DHT22;32278;51.810;4.712;2022-07-15T12:34:51;24.70;1.00
46552;DHT22;32278;51.810;4.712;2022-07-15T12:40:00;24.70;1.00
46552;DHT22;32278;51.810;4.712;2022-07-15T12:42:43;24.80;1.00
46552;DHT22;32278;51.810;4.712;2022-07-15T12:45:23;23.90;1.00
46552;DHT22;32278;51.810;4.712;2022-07-15T12:48:05;23.90;1.00
46552;DHT22;32278;51.810;4.712;2022-07-15T12:50:58;23.70;2.40
46552;DHT22;32278;51.810;4.712;2022-07-15T12:53:23;23.60;10.00
46552;DHT22;32278;51.810;4.712;2022-07-15T12:55:50;24.00;15.30
46552;DHT22;32278;51.810;4.712;2022-07-15T12:58:23;23.80;10.50
46552;DHT22;32278;51.810;4.712;2022-07-15T13:00:48;24.00;10.50
46552;DHT22;32278;51.810;4.712;2022-07-15T13:03:21;23.90;4.20
46552;DHT22;32278;51.810;4.712;2022-07-15T13:05:53;23.40;12.20
46552;DHT22;32278;51.810;4.712;2022-07-15T13:08:24;23.10;20.80
46552;DHT22;32278;51.810;4.712;2022-07-15T13:10:52;22.90;34.60
46552;DHT22;32278;51.810;4.712;2022-07-15T13:13:19;23.10;33.30
46552;DHT22;32278;51.810;4.712;2022-07-15T13:15:46;23.20;34.90
46552;DHT22;32278;51.810;4.712;2022-07-15T13:18:13;23.30;32.80
46552;DHT22;32278;51.810;4.712;2022-07-15T13:20:39;23.00;38.40
46552;DHT22;32278;51.810;4.712;2022-07-15T13:23:05;23.40;40.30
46552;DHT22;32278;51.810;4.712;2022-07-15T13:25:32;23.10;31.10
46552;DHT22;32278;51.810;4.712;2022-07-15T13:28:01;23.00;38.10
46552;DHT22;32278;51.810;4.712;2022-07-15T13:30:26;23.10;35.60
46552;DHT22;32278;51.810;4.712;2022-07-15T13:32:52;22.70;40.70
46552;DHT22;32278;51.810;4.712;2022-07-15T13:35:18;22.60;51.40
46552;DHT22;32278;51.810;4.712;2022-07-15T13:37:43;22.60;54.50
46552;DHT22;32278;51.810;4.712;2022-07-15T13:40:10;22.90;46.80
46552;DHT22;32278;51.810;4.712;2022-07-15T13:42:37;23.40;46.30
46552;DHT22;32278;51.810;4.712;2022-07-15T13:45:05;23.60;29.30
46552;DHT22;32278;51.810;4.712;2022-07-15T13:47:31;22.80;34.30
46552;DHT22;32278;51.810;4.712;2022-07-15T13:49:56;23.00;37.10
46552;DHT22;32278;51.810;4.712;2022-07-15T13:52:45;23.00;27.10
46552;DHT22;32278;51.810;4.712;2022-07-15T13:55:12;22.60;33.70
46552;DHT22;32278;51.810;4.712;2022-07-15T13:57:38;22.80;22.00
46552;DHT22;32278;51.810;4.712;2022-07-15T14:00:05;22.50;33.20
46552;DHT22;32278;51.810;4.712;2022-07-15T14:02:32;22.50;44.90
46552;DHT22;32278;51.810;4.712;2022-07-15T14:04:57;22.30;51.80
46552;DHT22;32278;51.810;4.712;2022-07-15T14:07:23;22.70;56.40
46552;DHT22;32278;51.810;4.712;2022-07-15T14:09:49;22.90;54.20
46552;DHT22;32278;51.810;4.712;2022-07-15T14:12:14;22.90;48.80
46552;DHT22;32278;51.810;4.712;2022-07-15T14:14:40;23.10;42.10
46552;DHT22;32278;51.810;4.712;2022-07-15T14:17:05;23.20;44.30
46552;DHT22;32278;51.810;4.712;2022-07-15T14:19:31;23.50;47.00
46552;DHT22;32278;51.810;4.712;2022-07-15T14:21:56;23.40;45.20
46552;DHT22;32278;51.810;4.712;2022-07-15T14:24:22;23.50;51.50
46552;DHT22;32278;51.810;4.712;2022-07-15T14:26:48;23.40;50.00
46552;DHT22;32278;51.810;4.712;2022-07-15T14:29:13;23.20;55.10
46552;DHT22;32278;51.810;4.712;2022-07-15T14:31:39;22.60;64.60
46552;DHT22;32278;51.810;4.712;2022-07-15T14:34:05;22.00;75.10
46552;DHT22;32278;51.810;4.712;2022-07-15T14:36:31;21.90;84.30
46552;DHT22;32278;51.810;4.712;2022-07-15T14:38:57;22.20;87.60
46552;DHT22;32278;51.810;4.712;2022-07-15T14:41:22;22.40;83.80
46552;DHT22;32278;51.810;4.712;2022-07-15T14:43:48;22.50;79.70
46552;DHT22;32278;51.810;4.712;2022-07-15T14:46:13;22.30;81.70
46552;DHT22;32278;51.810;4.712;2022-07-15T14:48:39;22.20;85.80
46552;DHT22;32278;51.810;4.712;2022-07-15T14:51:05;22.00;85.20
46552;DHT22;32278;51.810;4.712;2022-07-15T14:53:30;22.00;86.10
46552;DHT22;32278;51.810;4.712;2022-07-15T14:55:56;22.10;88.00
46552;DHT22;32278;51.810;4.712;2022-07-15T14:58:23;22.00;86.70
46552;DHT22;32278;51.810;4.712;2022-07-15T15:00:48;22.20;82.70
46552;DHT22;32278;51.810;4.712;2022-07-15T15:03:15;22.40;83.50
46552;DHT22;32278;51.810;4.712;2022-07-15T15:05:41;22.50;77.20
46552;DHT22;32278;51.810;4.712;2022-07-15T15:08:07;22.70;71.10
46552;DHT22;32278;51.810;4.712;2022-07-15T15:10:32;22.70;71.50
46552;DHT22;32278;51.810;4.712;2022-07-15T15:12:58;22.40;75.90
46552;DHT22;32278;51.810;4.712;2022-07-15T15:15:23;22.10;81.00
46552;DHT22;32278;51.810;4.712;2022-07-15T15:17:49;22.20;83.20
46552;DHT22;32278;51.810;4.712;2022-07-15T15:20:16;22.50;75.50
46552;DHT22;32278;51.810;4.712;2022-07-15T15:22:42;22.50;70.60
46552;DHT22;32278;51.810;4.712;2022-07-15T15:25:08;22.30;72.50
46552;DHT22;32278;51.810;4.712;2022-07-15T15:27:35;22.40;72.30
46552;DHT22;32278;51.810;4.712;2022-07-15T15:30:01;22.10;73.40
46552;DHT22;32278;51.810;4.712;2022-07-15T15:32:26;21.80;74.00
46552;DHT22;32278;51.810;4.712;2022-07-15T15:34:52;21.80;73.00
46552;DHT22;32278;51.810;4.712;2022-07-15T15:37:18;22.00;70.90
46552;DHT22;32278;51.810;4.712;2022-07-15T15:39:44;22.30;67.70
46552;DHT22;32278;51.810;4.712;2022-07-15T15:42:10;22.30;61.80
46552;DHT22;32278;51.810;4.712;2022-07-15T15:44:36;22.30;58.20
46552;DHT22;32278;51.810;4.712;2022-07-15T15:47:02;22.50;61.00
46552;DHT22;32278;51.810;4.712;2022-07-15T15:49:28;22.30;54.00
46552;DHT22;32278;51.810;4.712;2022-07-15T15:51:54;22.20;56.70
46552;DHT22;32278;51.810;4.712;2022-07-15T15:54:19;22.30;55.60
46552;DHT22;32278;51.810;4.712;2022-07-15T15:56:45;22.30;53.50
46552;DHT22;32278;51.810;4.712;2022-07-15T15:59:12;22.40;56.10
46552;DHT22;32278;51.810;4.712;2022-07-15T16:01:37;22.40;56.10
46552;DHT22;32278;51.810;4.712;2022-07-15T16:04:03;22.20;60.90
46552;DHT22;32278;51.810;4.712;2022-07-15T16:06:29;22.40;64.30
46552;DHT22;32278;51.810;4.712;2022-07-15T16:08:54;22.70;55.30
46552;DHT22;32278;51.810;4.712;2022-07-15T16:11:20;22.80;53.00